Anna Maria, Florida
Current Conditions -  °F | °C
As of 6:53 PM on Friday 21 Nov 2014 (Local Time) from KSRQ Reporting Station
Overcast Overcast  
Wind Chill: 69°   Ceiling: 7000
Heat Index: 69°   Visibility: 10mi
Dew Point: 54°   Wind: 10mph
Humidity: 58%   Direction: 60°ENE
Pressure: 30.2"   Gusts: NA
Location:  27.53°N, 82.73°W
Report Text: KSRQ 212353Z 06009KT 10SM OVC070 21/12 A3020 RMK AO2 SLP227 60000 T02060122 10222 20206 53010
Loading
Personal Weather Stations






























Interactive Weather Map New forecast layout! Learn more

10-Day Weather Forecast

Advertisements
Track Severe Weather on mobile